createdAt,value
2019-01-25T00:01:13.427Z,52.31
2019-01-25T00:03:45.384Z,52.24
2019-01-25T00:06:19.680Z,52.14
2019-01-25T00:08:51.409Z,52.06
2019-01-25T00:11:23.556Z,52.01
2019-01-25T00:13:55.759Z,51.98
2019-01-25T00:16:28.884Z,51.97
2019-01-25T00:19:00.755Z,51.95
2019-01-25T00:21:35.178Z,51.99
2019-01-25T00:24:07.385Z,52.02
2019-01-25T00:26:41.999Z,52.03
2019-01-25T00:29:13.909Z,52.00
2019-01-25T00:31:45.527Z,51.99
2019-01-25T00:34:17.191Z,51.99
2019-01-25T00:36:50.571Z,52.02
2019-01-25T00:39:22.258Z,51.99
2019-01-25T00:41:54.071Z,51.94
2019-01-25T00:44:28.757Z,51.96
2019-01-25T00:47:01.577Z,51.87
2019-01-25T00:49:33.910Z,51.86
2019-01-25T00:52:05.712Z,51.79
2019-01-25T00:54:41.261Z,51.69
2019-01-25T00:57:23.134Z,51.59
2019-01-25T01:00:01.402Z,51.52
2019-01-25T01:02:43.790Z,51.43
2019-01-25T01:05:22.574Z,51.38
2019-01-25T01:07:56.537Z,51.33
2019-01-25T01:10:34.018Z,51.34
2019-01-25T01:13:07.784Z,51.34
2019-01-25T01:15:41.951Z,51.33
2019-01-25T01:18:16.507Z,51.31
2019-01-25T01:20:48.287Z,51.29
2019-01-25T01:23:20.224Z,51.27
2019-01-25T01:25:54.294Z,51.20
2019-01-25T01:28:26.129Z,51.15
2019-01-25T01:30:57.771Z,51.11
2019-01-25T01:33:30.604Z,51.05
2019-01-25T01:36:08.879Z,51.00
2019-01-25T01:38:46.546Z,50.95
2019-01-25T01:41:20.332Z,50.88
2019-01-25T01:44:03.607Z,50.81
2019-01-25T01:46:38.057Z,50.76
2019-01-25T01:49:16.390Z,50.71
2019-01-25T01:51:50.375Z,50.68
2019-01-25T01:54:22.118Z,50.66
2019-01-25T01:56:57.088Z,50.66
2019-01-25T01:59:28.769Z,50.65
2019-01-25T02:02:00.786Z,50.67
2019-01-25T02:04:44.325Z,50.72
2019-01-25T02:07:18.985Z,50.81
2019-01-25T02:09:54.944Z,50.98
2019-01-25T02:12:30.481Z,51.14
2019-01-25T02:15:06.925Z,51.23
2019-01-25T02:17:51.084Z,51.24
2019-01-25T02:20:38.007Z,51.23
2019-01-25T02:23:14.045Z,51.22
2019-01-25T02:25:52.918Z,51.18
2019-01-25T02:28:24.623Z,51.15
2019-01-25T02:30:56.721Z,51.16
2019-01-25T02:33:28.560Z,51.17
2019-01-25T02:36:00.451Z,51.18
2019-01-25T02:38:32.051Z,51.21
2019-01-25T02:41:04.566Z,51.20
2019-01-25T02:43:36.252Z,51.16
2019-01-25T02:46:07.893Z,51.15
2019-01-25T02:48:39.585Z,51.13
2019-01-25T02:51:11.369Z,51.17
2019-01-25T02:53:42.932Z,51.17
2019-01-25T02:56:16.320Z,51.14
2019-01-25T02:58:48.185Z,51.16
2019-01-25T03:01:19.829Z,51.17
2019-01-25T03:03:51.532Z,51.19
2019-01-25T03:06:23.471Z,51.18
2019-01-25T03:08:55.526Z,51.19
2019-01-25T03:11:27.224Z,51.19
2019-01-25T03:13:58.921Z,51.22
2019-01-25T03:16:30.547Z,51.21
2019-01-25T03:19:02.902Z,51.20
2019-01-25T03:21:34.779Z,51.20
2019-01-25T03:24:06.678Z,51.17
2019-01-25T03:26:38.315Z,51.16
2019-01-25T03:29:09.918Z,51.18
2019-01-25T03:31:41.586Z,51.17
2019-01-25T03:34:13.219Z,51.23
2019-01-25T03:36:46.485Z,51.33
2019-01-25T03:39:18.107Z,51.42
2019-01-25T03:41:50.833Z,51.47
2019-01-25T03:44:22.450Z,51.50
2019-01-25T03:46:54.180Z,51.48
2019-01-25T03:49:25.879Z,51.43
2019-01-25T03:51:57.670Z,51.39
2019-01-25T03:54:30.346Z,51.43
2019-01-25T03:57:02.242Z,51.45
2019-01-25T03:59:45.311Z,51.42
2019-01-25T04:02:17.192Z,51.41
2019-01-25T04:04:48.808Z,51.43
2019-01-25T04:07:21.002Z,51.45
2019-01-25T04:09:53.510Z,51.49
2019-01-25T04:12:25.369Z,51.57
2019-01-25T04:14:56.994Z,51.63
2019-01-25T04:17:29.385Z,51.69
2019-01-25T04:20:01.031Z,51.76
2019-01-25T04:22:32.899Z,51.84
2019-01-25T04:25:05.917Z,51.89
2019-01-25T04:27:37.575Z,51.96
2019-01-25T04:30:14.024Z,52.00
2019-01-25T04:32:45.633Z,52.06
2019-01-25T04:35:17.223Z,52.13
2019-01-25T04:37:48.839Z,52.18
2019-01-25T04:40:20.874Z,52.32
2019-01-25T04:42:52.756Z,52.39
2019-01-25T04:45:24.546Z,52.48
2019-01-25T04:47:56.164Z,52.57
2019-01-25T04:50:28.158Z,52.64
2019-01-25T04:52:59.822Z,52.71
2019-01-25T04:55:33.894Z,52.75
2019-01-25T04:58:15.869Z,52.80
2019-01-25T05:00:48.095Z,52.88
2019-01-25T05:03:25.646Z,52.89
2019-01-25T05:06:06.448Z,52.93
2019-01-25T05:08:38.333Z,52.95
2019-01-25T05:11:24.788Z,52.97
2019-01-25T05:14:02.972Z,53.10
2019-01-25T05:16:34.709Z,53.18
2019-01-25T05:19:06.478Z,53.29
2019-01-25T05:21:38.133Z,53.38
2019-01-25T05:24:15.831Z,53.47
2019-01-25T05:26:49.069Z,53.50
2019-01-25T05:29:24.695Z,53.58
2019-01-25T05:31:57.552Z,53.68
2019-01-25T05:34:30.622Z,53.71
2019-01-25T05:37:09.403Z,53.78
2019-01-25T05:39:54.811Z,53.85
2019-01-25T05:42:32.984Z,53.90
2019-01-25T05:45:12.182Z,53.96
2019-01-25T05:47:52.496Z,54.03
2019-01-25T05:50:27.294Z,54.06
2019-01-25T05:53:06.079Z,54.09
2019-01-25T05:55:38.955Z,54.13
2019-01-25T05:58:13.494Z,54.18
2019-01-25T06:00:46.586Z,54.28
2019-01-25T06:03:18.204Z,54.31
2019-01-25T06:05:50.634Z,54.38
2019-01-25T06:08:32.687Z,54.44
2019-01-25T06:11:07.823Z,54.53
2019-01-25T06:13:41.149Z,54.56
2019-01-25T06:16:13.049Z,54.64
2019-01-25T06:18:44.758Z,54.68
2019-01-25T06:21:16.408Z,54.73
2019-01-25T06:23:48.045Z,54.77
2019-01-25T06:26:19.653Z,54.80
2019-01-25T06:28:54.528Z,54.77
2019-01-25T06:31:26.325Z,54.79
2019-01-25T06:33:58.129Z,54.82
2019-01-25T06:36:29.765Z,54.79
2019-01-25T06:39:01.438Z,54.76
2019-01-25T06:41:33.160Z,54.81
2019-01-25T06:44:04.915Z,54.83
2019-01-25T06:46:36.544Z,54.88
2019-01-25T06:49:08.182Z,54.91
2019-01-25T06:51:39.804Z,54.96
2019-01-25T06:54:11.445Z,54.97
2019-01-25T06:56:43.095Z,55.01
2019-01-25T06:59:20.879Z,55.08
2019-01-25T07:02:17.296Z,55.10
2019-01-25T07:04:50.958Z,55.13
2019-01-25T07:07:28.997Z,55.11
2019-01-25T07:10:08.342Z,55.14
2019-01-25T07:12:43.120Z,55.21
2019-01-25T07:15:17.514Z,55.22
2019-01-25T07:17:49.179Z,55.23
2019-01-25T07:20:20.802Z,55.16
2019-01-25T07:22:52.423Z,55.13
2019-01-25T07:25:24.048Z,55.15
2019-01-25T07:27:55.719Z,55.23
2019-01-25T07:30:27.494Z,55.24
2019-01-25T07:32:59.146Z,55.25
2019-01-25T07:35:30.834Z,55.25
2019-01-25T07:38:02.466Z,55.25
2019-01-25T07:40:34.262Z,55.27
2019-01-25T07:43:05.940Z,55.24
2019-01-25T07:45:37.715Z,55.22
2019-01-25T07:48:09.337Z,55.25
2019-01-25T07:50:41.103Z,55.25
2019-01-25T07:53:12.814Z,55.23
2019-01-25T07:55:44.525Z,55.23
2019-01-25T07:58:16.191Z,55.21
2019-01-25T08:00:48.186Z,55.20
2019-01-25T08:03:20.178Z,55.18
2019-01-25T08:05:52.381Z,55.17
2019-01-25T08:08:24.061Z,55.14
2019-01-25T08:10:56.062Z,55.13
2019-01-25T08:13:27.736Z,55.14
2019-01-25T08:15:59.730Z,55.17
2019-01-25T08:18:31.615Z,55.21
2019-01-25T08:21:03.368Z,55.24
2019-01-25T08:23:34.981Z,55.32
2019-01-25T08:26:06.695Z,55.32
2019-01-25T08:28:38.306Z,55.32
2019-01-25T08:31:09.923Z,55.33
2019-01-25T08:33:41.669Z,55.33
2019-01-25T08:36:13.271Z,55.36
2019-01-25T08:38:44.952Z,55.37
2019-01-25T08:41:16.588Z,55.38
2019-01-25T08:43:48.250Z,55.41
2019-01-25T08:46:19.901Z,55.42
2019-01-25T08:48:51.631Z,55.42
2019-01-25T08:51:23.410Z,55.43
2019-01-25T08:53:55.161Z,55.42
2019-01-25T08:56:26.881Z,55.43
2019-01-25T08:58:58.962Z,55.40
2019-01-25T09:01:30.623Z,55.40
2019-01-25T09:04:02.914Z,55.44
2019-01-25T09:06:32.153Z,55.58
2019-01-25T09:09:05.918Z,55.61
2019-01-25T09:11:37.584Z,55.68
2019-01-25T09:14:09.436Z,55.72
2019-01-25T09:16:41.175Z,55.72
2019-01-25T09:19:13.370Z,55.71
2019-01-25T09:21:45.029Z,55.77
2019-01-25T09:24:16.651Z,55.78
2019-01-25T09:26:48.362Z,55.83
2019-01-25T09:29:20.101Z,55.88
2019-01-25T09:31:51.768Z,55.98
2019-01-25T09:34:23.468Z,56.05
2019-01-25T09:36:55.206Z,56.08
2019-01-25T09:39:26.965Z,56.06
2019-01-25T09:41:58.625Z,55.99
2019-01-25T09:44:30.506Z,56.02
2019-01-25T09:47:02.320Z,56.11
2019-01-25T09:49:34.041Z,56.12
2019-01-25T09:52:06.101Z,56.24
2019-01-25T09:54:37.761Z,56.30
2019-01-25T09:57:09.393Z,56.36
2019-01-25T09:59:42.366Z,56.41
2019-01-25T10:02:14.637Z,56.38
2019-01-25T10:04:46.275Z,56.35
2019-01-25T10:07:18.325Z,56.29
2019-01-25T10:09:49.988Z,56.25
2019-01-25T10:12:21.632Z,56.29
2019-01-25T10:14:53.318Z,56.35
2019-01-25T10:17:24.934Z,56.33
2019-01-25T10:19:56.706Z,56.30
2019-01-25T10:22:28.584Z,56.32
2019-01-25T10:25:00.273Z,56.36
2019-01-25T10:27:31.959Z,56.35
2019-01-25T10:30:04.164Z,56.36
2019-01-25T10:32:37.638Z,56.31
2019-01-25T10:35:11.187Z,56.23
2019-01-25T10:37:43.108Z,56.16
2019-01-25T10:40:18.304Z,56.26
2019-01-25T10:42:53.168Z,56.34
2019-01-25T10:45:31.756Z,56.46
2019-01-25T10:48:03.522Z,56.54
2019-01-25T10:50:35.181Z,56.52
2019-01-25T10:53:08.751Z,56.50
2019-01-25T10:55:40.495Z,56.45
2019-01-25T10:58:12.236Z,56.38
2019-01-25T11:00:43.901Z,56.33
2019-01-25T11:03:15.551Z,56.26
2019-01-25T11:05:47.202Z,56.21
2019-01-25T11:08:18.962Z,56.18
2019-01-25T11:10:51.340Z,56.11
2019-01-25T11:13:23.004Z,56.13
2019-01-25T11:15:54.758Z,56.10
2019-01-25T11:18:26.536Z,56.09
2019-01-25T11:20:58.233Z,56.06
2019-01-25T11:23:30.003Z,55.97
2019-01-25T11:26:01.774Z,55.87
2019-01-25T11:28:33.425Z,55.80
2019-01-25T11:31:05.117Z,55.79
2019-01-25T11:33:36.987Z,55.81
2019-01-25T11:36:08.749Z,55.89
2019-01-25T11:38:41.998Z,55.93
2019-01-25T11:41:13.811Z,56.00
2019-01-25T11:43:45.458Z,55.98
2019-01-25T11:46:17.102Z,55.91
2019-01-25T11:48:48.745Z,55.90
2019-01-25T11:51:20.425Z,55.79
2019-01-25T11:53:52.530Z,55.74
2019-01-25T11:56:24.351Z,55.77
2019-01-25T11:58:59.144Z,55.79
2019-01-25T12:04:18.317Z,55.63
2019-01-25T12:06:50.176Z,55.59
2019-01-25T12:09:22.385Z,55.58
2019-01-25T12:11:54.212Z,55.55
2019-01-25T12:14:26.183Z,55.57
2019-01-25T12:16:58.401Z,55.60
2019-01-25T12:19:30.430Z,55.60
2019-01-25T12:22:02.183Z,55.58
2019-01-25T12:24:33.941Z,55.56
2019-01-25T12:27:06.520Z,55.59
2019-01-25T12:29:38.327Z,55.59
2019-01-25T12:32:09.991Z,55.60
2019-01-25T12:34:41.845Z,55.69
2019-01-25T12:37:13.518Z,55.68
2019-01-25T12:39:45.415Z,55.69
2019-01-25T12:42:17.346Z,55.70
2019-01-25T12:44:52.977Z,55.75
2019-01-25T12:47:25.782Z,55.84
2019-01-25T12:49:57.639Z,55.86
2019-01-25T12:52:29.275Z,55.83
2019-01-25T12:55:00.924Z,55.78
2019-01-25T12:57:32.831Z,55.72
2019-01-25T13:00:05.568Z,55.75
2019-01-25T13:02:37.349Z,55.73
2019-01-25T13:05:13.294Z,55.69
2019-01-25T13:07:45.022Z,55.63
2019-01-25T13:10:18.002Z,55.58
2019-01-25T13:12:49.776Z,55.52
2019-01-25T13:15:21.901Z,55.56
2019-01-25T13:17:53.649Z,55.58
2019-01-25T13:20:27.656Z,55.56
2019-01-25T13:22:59.529Z,55.54
2019-01-25T13:25:31.265Z,55.50
2019-01-25T13:28:03.145Z,55.39
2019-01-25T13:30:34.800Z,55.31
2019-01-25T13:33:06.888Z,55.28
2019-01-25T13:35:38.520Z,55.26
2019-01-25T13:38:11.702Z,55.22
2019-01-25T13:40:46.235Z,55.31
2019-01-25T13:43:18.104Z,55.40
2019-01-25T13:45:49.820Z,55.39
2019-01-25T13:48:21.618Z,55.33
2019-01-25T13:51:00.002Z,55.30
2019-01-25T13:53:33.072Z,55.26
2019-01-25T13:56:07.267Z,55.30
2019-01-25T13:58:44.203Z,55.34
2019-01-25T14:01:17.463Z,55.29
2019-01-25T14:03:49.168Z,55.30
2019-01-25T14:06:20.947Z,55.24
2019-01-25T14:08:52.802Z,55.23
2019-01-25T14:11:24.880Z,55.23
2019-01-25T14:13:56.699Z,55.22
2019-01-25T14:16:28.426Z,55.25
2019-01-25T14:19:00.179Z,55.28
2019-01-25T14:21:31.879Z,55.33
2019-01-25T14:24:03.572Z,55.35
2019-01-25T14:26:35.296Z,55.39
2019-01-25T14:29:07.241Z,55.36
2019-01-25T14:31:39.123Z,55.28
2019-01-25T14:34:10.863Z,55.28
2019-01-25T14:36:42.589Z,55.28
2019-01-25T14:39:14.303Z,55.22
2019-01-25T14:41:45.965Z,55.21
2019-01-25T14:44:17.990Z,55.20
2019-01-25T14:46:50.116Z,55.17
2019-01-25T14:49:22.035Z,55.13
2019-01-25T14:51:53.839Z,55.12
2019-01-25T14:54:25.541Z,55.18
2019-01-25T14:56:57.281Z,55.18
2019-01-25T14:59:29.056Z,55.12
2019-01-25T15:02:01.013Z,55.06
2019-01-25T15:04:32.688Z,54.98
2019-01-25T15:07:04.825Z,54.98
2019-01-25T15:09:38.053Z,54.96
2019-01-25T15:12:13.368Z,54.95
2019-01-25T15:14:45.046Z,54.92
2019-01-25T15:17:20.823Z,54.90
2019-01-25T15:19:54.380Z,54.86
2019-01-25T15:22:26.366Z,54.91
2019-01-25T15:24:58.125Z,54.92
2019-01-25T15:27:29.815Z,54.97
2019-01-25T15:30:01.459Z,54.94
2019-01-25T15:32:33.298Z,54.93
2019-01-25T15:35:06.246Z,54.97
2019-01-25T15:37:38.148Z,54.97
2019-01-25T15:40:11.586Z,54.99
2019-01-25T15:42:43.270Z,54.95
2019-01-25T15:45:16.494Z,54.84
2019-01-25T15:47:49.851Z,54.79
2019-01-25T15:50:30.198Z,54.79
2019-01-25T15:53:02.238Z,54.82
2019-01-25T15:55:34.174Z,54.83
2019-01-25T15:58:06.107Z,54.82
2019-01-25T16:00:37.742Z,54.79
2019-01-25T16:03:09.564Z,54.73
2019-01-25T16:05:41.296Z,54.73
2019-01-25T16:08:13.146Z,54.72
2019-01-25T16:10:46.863Z,54.71
2019-01-25T16:13:18.592Z,54.69
2019-01-25T16:15:50.303Z,54.70
2019-01-25T16:18:22.098Z,54.75
2019-01-25T16:20:53.818Z,54.74
2019-01-25T16:23:26.527Z,54.70
2019-01-25T16:25:58.567Z,54.66
2019-01-25T16:28:30.425Z,54.60
2019-01-25T16:31:02.175Z,54.60
2019-01-25T16:33:33.887Z,54.56
2019-01-25T16:36:06.049Z,54.55
2019-01-25T16:38:37.881Z,54.53
2019-01-25T16:41:10.002Z,54.48
2019-01-25T16:43:41.683Z,54.48
2019-01-25T16:46:13.401Z,54.48
2019-01-25T16:48:45.116Z,54.47
2019-01-25T16:51:16.798Z,54.51
2019-01-25T16:53:48.504Z,54.50
2019-01-25T16:56:20.424Z,54.46
2019-01-25T16:58:52.214Z,54.43
2019-01-25T17:01:24.048Z,54.43
2019-01-25T17:03:57.258Z,54.43
2019-01-25T17:06:28.970Z,54.39
2019-01-25T17:09:08.261Z,54.33
2019-01-25T17:11:47.518Z,54.40
2019-01-25T17:14:19.455Z,54.44
2019-01-25T17:16:58.188Z,54.49
2019-01-25T17:19:36.874Z,54.51
2019-01-25T17:22:12.473Z,54.45
2019-01-25T17:24:45.642Z,54.38
2019-01-25T17:27:17.999Z,54.42
2019-01-25T17:29:52.473Z,54.42
2019-01-25T17:32:24.294Z,54.45
2019-01-25T17:34:56.483Z,54.42
2019-01-25T17:37:39.809Z,54.37
2019-01-25T17:40:17.080Z,54.36
2019-01-25T17:42:53.234Z,54.33
2019-01-25T17:45:25.323Z,54.33
2019-01-25T17:47:57.120Z,54.31
2019-01-25T17:50:28.767Z,54.31
2019-01-25T17:53:00.465Z,54.29
2019-01-25T17:55:33.830Z,54.22
2019-01-25T17:58:08.140Z,54.21
2019-01-25T18:01:01.829Z,54.16
2019-01-25T18:03:33.593Z,54.08
2019-01-25T18:06:05.609Z,54.05
2019-01-25T18:08:37.581Z,54.06
2019-01-25T18:11:10.601Z,54.07
2019-01-25T18:13:42.268Z,54.12
2019-01-25T18:16:13.965Z,54.10
2019-01-25T18:18:46.538Z,54.08
2019-01-25T18:21:18.301Z,54.05
2019-01-25T18:23:50.116Z,53.97
2019-01-25T18:26:25.152Z,53.97
2019-01-25T18:29:29.704Z,53.95
2019-01-25T18:32:01.366Z,53.92
2019-01-25T18:34:33.095Z,53.92
2019-01-25T18:37:04.980Z,53.96
2019-01-25T18:39:36.771Z,53.95
2019-01-25T18:42:08.494Z,53.93
2019-01-25T18:44:40.249Z,53.93
2019-01-25T18:47:12.132Z,53.94
2019-01-25T18:49:43.915Z,53.95
2019-01-25T18:52:15.861Z,53.93
2019-01-25T18:54:47.887Z,53.94
2019-01-25T18:57:19.583Z,53.95
2019-01-25T18:59:51.533Z,53.92
2019-01-25T19:02:26.830Z,53.94
2019-01-25T19:05:01.293Z,53.95
2019-01-25T19:07:35.557Z,53.92
2019-01-25T19:10:11.995Z,53.87
2019-01-25T19:12:43.954Z,53.82
2019-01-25T19:15:20.169Z,53.80
2019-01-25T19:17:51.993Z,53.79
2019-01-25T19:20:23.665Z,53.80
2019-01-25T19:22:55.557Z,53.78
2019-01-25T19:25:27.241Z,53.76
2019-01-25T19:27:59.145Z,53.75
2019-01-25T19:30:35.107Z,53.77
2019-01-25T19:33:07.419Z,53.75
2019-01-25T19:35:39.287Z,53.70
2019-01-25T19:38:13.545Z,53.68
2019-01-25T19:40:45.496Z,53.65
2019-01-25T19:43:17.292Z,53.63
2019-01-25T19:45:49.764Z,53.65
2019-01-25T19:48:21.561Z,53.67
2019-01-25T19:50:54.434Z,53.65
2019-01-25T19:53:26.336Z,53.66
2019-01-25T19:55:58.102Z,53.59
2019-01-25T19:58:29.999Z,53.58
2019-01-25T20:01:01.945Z,53.54
2019-01-25T20:03:33.769Z,53.49
2019-01-25T20:06:05.833Z,53.45
2019-01-25T20:08:37.704Z,53.37
2019-01-25T20:11:09.845Z,53.33
2019-01-25T20:13:42.036Z,53.32
2019-01-25T20:16:13.873Z,53.27
2019-01-25T20:18:45.569Z,53.23
2019-01-25T20:21:17.312Z,53.18
2019-01-25T20:23:49.052Z,53.18
2019-01-25T20:26:20.833Z,53.26
2019-01-25T20:28:52.661Z,53.23
2019-01-25T20:31:24.356Z,53.26
2019-01-25T20:33:56.262Z,53.25
2019-01-25T20:36:28.900Z,53.23
2019-01-25T20:39:00.828Z,53.23
2019-01-25T20:41:32.506Z,53.14
2019-01-25T20:44:04.414Z,53.09
2019-01-25T20:46:36.069Z,53.07
2019-01-25T20:49:08.032Z,53.04
2019-01-25T20:51:39.832Z,53.02
2019-01-25T20:54:11.111Z,53.11
2019-01-25T20:56:44.407Z,53.19
2019-01-25T20:59:16.419Z,53.30
2019-01-25T21:01:53.236Z,53.36
2019-01-25T21:04:28.819Z,53.37
2019-01-25T21:07:00.534Z,53.43
2019-01-25T21:09:32.259Z,53.52
2019-01-25T21:12:05.091Z,53.56
2019-01-25T21:14:36.835Z,53.65
2019-01-25T21:17:08.785Z,53.70
2019-01-25T21:19:40.416Z,53.79
2019-01-25T21:22:12.135Z,53.82
2019-01-25T21:24:43.855Z,53.84
2019-01-25T21:27:15.625Z,53.86
2019-01-25T21:29:48.871Z,53.86
2019-01-25T21:32:20.668Z,53.90
2019-01-25T21:34:52.374Z,53.94
2019-01-25T21:37:24.238Z,54.02
2019-01-25T21:39:55.867Z,54.11
2019-01-25T21:42:27.518Z,54.16
2019-01-25T21:44:59.257Z,54.26
2019-01-25T21:47:31.034Z,54.28
2019-01-25T21:50:02.678Z,54.32
2019-01-25T21:52:34.409Z,54.35
2019-01-25T21:55:08.498Z,54.33
2019-01-25T21:57:40.208Z,54.28
2019-01-25T22:00:17.018Z,54.27
2019-01-25T22:02:48.909Z,54.22
2019-01-25T22:05:21.048Z,54.17
2019-01-25T22:07:52.883Z,54.18
2019-01-25T22:10:29.490Z,54.12
2019-01-25T22:13:04.317Z,54.02
2019-01-25T22:15:36.265Z,53.94
2019-01-25T22:18:08.789Z,53.95
2019-01-25T22:20:40.574Z,53.90
2019-01-25T22:23:12.653Z,53.84
2019-01-25T22:25:44.485Z,53.83
2019-01-25T22:28:22.894Z,53.84
2019-01-25T22:30:54.542Z,53.84
2019-01-25T22:33:26.229Z,53.76
2019-01-25T22:35:58.103Z,53.76
2019-01-25T22:38:29.774Z,53.73
2019-01-25T22:41:01.483Z,53.68
2019-01-25T22:43:36.126Z,53.58
2019-01-25T22:46:09.328Z,53.66
2019-01-25T22:48:41.113Z,53.62
2019-01-25T22:51:23.725Z,53.56
2019-01-25T22:53:58.477Z,53.51
2019-01-25T22:56:30.318Z,53.42
2019-01-25T22:59:01.984Z,53.36
2019-01-25T23:01:35.915Z,53.39
2019-01-25T23:04:54.972Z,53.37
2019-01-25T23:07:32.556Z,53.37
2019-01-25T23:10:16.090Z,53.48
2019-01-25T23:12:52.532Z,53.47
2019-01-25T23:15:28.233Z,53.50
2019-01-25T23:18:03.482Z,53.57
2019-01-25T23:20:36.714Z,53.64
2019-01-25T23:23:08.415Z,53.72
2019-01-25T23:25:40.207Z,53.84
2019-01-25T23:28:11.909Z,54.05
2019-01-25T23:30:43.686Z,54.22
2019-01-25T23:33:15.493Z,54.41
2019-01-25T23:35:47.170Z,54.65
2019-01-25T23:38:19.319Z,54.77
2019-01-25T23:40:51.160Z,54.86
2019-01-25T23:43:22.993Z,54.97
2019-01-25T23:45:55.019Z,55.01
2019-01-25T23:48:26.714Z,55.08
2019-01-25T23:50:58.623Z,55.12
2019-01-25T23:53:30.477Z,55.23
2019-01-25T23:56:02.410Z,55.25
2019-01-25T23:58:34.193Z,55.34
